sensor_id;sensor_type;location;lat;lon;timestamp;pressure;altitude;pressure_sealevel;temperature;humidity
66164;BME280;52962;51.088;3.096;2024-01-15T00:01:06;100410.66;;;17.14;nan
66164;BME280;52962;51.088;3.096;2024-01-15T00:03:34;100405.19;;;17.24;nan
66164;BME280;52962;51.088;3.096;2024-01-15T00:06:03;100407.91;;;17.21;nan
66164;BME280;52962;51.088;3.096;2024-01-15T00:08:32;100401.69;;;17.21;nan
66164;BME280;52962;51.088;3.096;2024-01-15T00:11:00;100398.22;;;16.41;nan
66164;BME280;52962;51.088;3.096;2024-01-15T00:13:28;100394.16;;;16.03;nan
66164;BME280;52962;51.088;3.096;2024-01-15T00:15:56;100399.44;;;16.06;nan
66164;BME280;52962;51.088;3.096;2024-01-15T00:18:26;100397.50;;;16.25;nan
66164;BME280;52962;51.088;3.096;2024-01-15T00:20:54;100393.03;;;16.28;nan
66164;BME280;52962;51.088;3.096;2024-01-15T00:23:22;100391.13;;;16.41;nan
66164;BME280;52962;51.088;3.096;2024-01-15T00:25:51;100385.22;;;16.13;nan
66164;BME280;52962;51.088;3.096;2024-01-15T00:28:19;100389.53;;;16.25;nan
66164;BME280;52962;51.088;3.096;2024-01-15T00:30:47;100389.22;;;16.54;nan
66164;BME280;52962;51.088;3.096;2024-01-15T00:33:16;100388.44;;;16.44;nan
66164;BME280;52962;51.088;3.096;2024-01-15T00:35:45;100386.09;;;16.14;nan
66164;BME280;52962;51.088;3.096;2024-01-15T00:38:14;100383.50;;;16.06;nan
66164;BME280;52962;51.088;3.096;2024-01-15T00:40:42;100377.09;;;16.28;nan
66164;BME280;52962;51.088;3.096;2024-01-15T00:43:11;100374.91;;;15.78;nan
66164;BME280;52962;51.088;3.096;2024-01-15T00:45:39;100373.66;;;16.19;nan
66164;BME280;52962;51.088;3.096;2024-01-15T00:48:07;100376.97;;;16.39;nan
66164;BME280;52962;51.088;3.096;2024-01-15T00:50:36;100364.66;;;16.32;nan
66164;BME280;52962;51.088;3.096;2024-01-15T00:53:05;100369.28;;;16.13;nan
66164;BME280;52962;51.088;3.096;2024-01-15T00:55:33;100353.06;;;16.41;nan
66164;BME280;52962;51.088;3.096;2024-01-15T00:58:03;100367.59;;;16.03;nan
66164;BME280;52962;51.088;3.096;2024-01-15T01:00:31;100366.53;;;16.22;nan
66164;BME280;52962;51.088;3.096;2024-01-15T01:02:59;100363.19;;;16.00;nan
66164;BME280;52962;51.088;3.096;2024-01-15T01:05:28;100361.31;;;16.12;nan
66164;BME280;52962;51.088;3.096;2024-01-15T01:07:56;100358.91;;;15.84;nan
66164;BME280;52962;51.088;3.096;2024-01-15T01:10:25;100363.13;;;16.08;nan
66164;BME280;52962;51.088;3.096;2024-01-15T01:12:54;100359.59;;;16.06;nan
66164;BME280;52962;51.088;3.096;2024-01-15T01:15:23;100365.59;;;16.28;nan
66164;BME280;52962;51.088;3.096;2024-01-15T01:17:52;100360.44;;;16.89;nan
66164;BME280;52962;51.088;3.096;2024-01-15T01:20:21;100356.47;;;17.19;nan
66164;BME280;52962;51.088;3.096;2024-01-15T01:22:49;100356.69;;;17.04;nan
66164;BME280;52962;51.088;3.096;2024-01-15T01:25:17;100351.72;;;16.78;nan
66164;BME280;52962;51.088;3.096;2024-01-15T01:27:47;100351.53;;;16.92;nan
66164;BME280;52962;51.088;3.096;2024-01-15T01:30:15;100350.38;;;17.11;nan
66164;BME280;52962;51.088;3.096;2024-01-15T01:32:44;100352.22;;;17.08;nan
66164;BME280;52962;51.088;3.096;2024-01-15T01:35:12;100345.72;;;17.27;nan
66164;BME280;52962;51.088;3.096;2024-01-15T01:37:41;100343.91;;;17.29;nan
66164;BME280;52962;51.088;3.096;2024-01-15T01:40:09;100347.59;;;17.20;nan
66164;BME280;52962;51.088;3.096;2024-01-15T01:42:38;100362.44;;;16.72;nan
66164;BME280;52962;51.088;3.096;2024-01-15T01:45:08;100350.19;;;17.25;nan
66164;BME280;52962;51.088;3.096;2024-01-15T01:47:37;100341.69;;;16.98;nan
66164;BME280;52962;51.088;3.096;2024-01-15T01:50:07;100341.28;;;16.63;nan
66164;BME280;52962;51.088;3.096;2024-01-15T01:52:35;100343.19;;;16.52;nan
66164;BME280;52962;51.088;3.096;2024-01-15T01:55:06;100336.94;;;16.56;nan
66164;BME280;52962;51.088;3.096;2024-01-15T01:57:35;100328.09;;;16.54;nan
66164;BME280;52962;51.088;3.096;2024-01-15T02:00:04;100332.59;;;16.47;nan
66164;BME280;52962;51.088;3.096;2024-01-15T02:02:43;100338.72;;;16.54;nan
66164;BME280;52962;51.088;3.096;2024-01-15T02:05:12;100334.28;;;16.54;nan
66164;BME280;52962;51.088;3.096;2024-01-15T02:07:43;100338.19;;;16.96;nan
66164;BME280;52962;51.088;3.096;2024-01-15T02:10:12;100339.72;;;17.13;nan
66164;BME280;52962;51.088;3.096;2024-01-15T02:12:40;100340.44;;;16.58;nan
66164;BME280;52962;51.088;3.096;2024-01-15T02:15:11;100343.94;;;16.63;nan
66164;BME280;52962;51.088;3.096;2024-01-15T02:18:03;100340.53;;;16.52;nan
66164;BME280;52962;51.088;3.096;2024-01-15T02:20:32;100335.16;;;16.55;nan
66164;BME280;52962;51.088;3.096;2024-01-15T02:23:08;100338.88;;;16.42;nan
66164;BME280;52962;51.088;3.096;2024-01-15T02:25:37;100336.56;;;16.10;nan
66164;BME280;52962;51.088;3.096;2024-01-15T02:28:07;100335.41;;;16.33;nan
66164;BME280;52962;51.088;3.096;2024-01-15T02:30:38;100330.19;;;16.24;nan
66164;BME280;52962;51.088;3.096;2024-01-15T02:33:07;100318.84;;;16.09;nan
66164;BME280;52962;51.088;3.096;2024-01-15T02:35:37;100325.84;;;16.17;nan
66164;BME280;52962;51.088;3.096;2024-01-15T02:38:07;100315.44;;;15.97;nan
66164;BME280;52962;51.088;3.096;2024-01-15T02:40:35;100309.94;;;16.88;nan
66164;BME280;52962;51.088;3.096;2024-01-15T02:43:03;100316.28;;;16.01;nan
66164;BME280;52962;51.088;3.096;2024-01-15T02:45:31;100317.97;;;16.10;nan
66164;BME280;52962;51.088;3.096;2024-01-15T02:48:00;100311.94;;;15.92;nan
66164;BME280;52962;51.088;3.096;2024-01-15T02:50:28;100309.38;;;15.82;nan
66164;BME280;52962;51.088;3.096;2024-01-15T02:52:56;100300.19;;;16.16;nan
66164;BME280;52962;51.088;3.096;2024-01-15T02:55:26;100302.13;;;16.74;nan
66164;BME280;52962;51.088;3.096;2024-01-15T02:57:56;100302.78;;;16.91;nan
66164;BME280;52962;51.088;3.096;2024-01-15T03:00:24;100295.97;;;16.72;nan
66164;BME280;52962;51.088;3.096;2024-01-15T03:02:52;100301.56;;;17.14;nan
66164;BME280;52962;51.088;3.096;2024-01-15T03:05:20;100302.66;;;17.57;nan
66164;BME280;52962;51.088;3.096;2024-01-15T03:07:49;100313.75;;;16.64;nan
66164;BME280;52962;51.088;3.096;2024-01-15T03:10:17;100321.06;;;16.50;nan
66164;BME280;52962;51.088;3.096;2024-01-15T03:12:47;100326.97;;;15.95;nan
66164;BME280;52962;51.088;3.096;2024-01-15T03:15:16;100338.34;;;14.88;nan
66164;BME280;52962;51.088;3.096;2024-01-15T03:17:45;100329.66;;;14.62;nan
66164;BME280;52962;51.088;3.096;2024-01-15T03:20:14;100332.25;;;14.76;nan
66164;BME280;52962;51.088;3.096;2024-01-15T03:22:42;100320.69;;;14.90;nan
66164;BME280;52962;51.088;3.096;2024-01-15T03:25:11;100318.91;;;14.89;nan
66164;BME280;52962;51.088;3.096;2024-01-15T03:27:39;100310.50;;;15.55;nan
66164;BME280;52962;51.088;3.096;2024-01-15T03:30:10;100307.34;;;15.05;nan
66164;BME280;52962;51.088;3.096;2024-01-15T03:32:39;100310.13;;;14.81;nan
66164;BME280;52962;51.088;3.096;2024-01-15T03:35:07;100312.50;;;15.24;nan
66164;BME280;52962;51.088;3.096;2024-01-15T03:37:36;100310.91;;;14.97;nan
66164;BME280;52962;51.088;3.096;2024-01-15T03:40:04;100301.19;;;15.00;nan
66164;BME280;52962;51.088;3.096;2024-01-15T03:42:32;100300.31;;;14.95;nan
66164;BME280;52962;51.088;3.096;2024-01-15T03:45:00;100296.72;;;15.07;nan
66164;BME280;52962;51.088;3.096;2024-01-15T03:47:30;100299.41;;;15.02;nan
66164;BME280;52962;51.088;3.096;2024-01-15T03:49:58;100296.84;;;14.83;nan
66164;BME280;52962;51.088;3.096;2024-01-15T03:52:26;100298.47;;;15.07;nan
66164;BME280;52962;51.088;3.096;2024-01-15T03:54:54;100296.66;;;15.15;nan
66164;BME280;52962;51.088;3.096;2024-01-15T03:57:22;100291.69;;;14.57;nan
66164;BME280;52962;51.088;3.096;2024-01-15T03:59:51;100288.81;;;14.96;nan
66164;BME280;52962;51.088;3.096;2024-01-15T04:02:19;100285.31;;;14.94;nan
66164;BME280;52962;51.088;3.096;2024-01-15T04:04:49;100292.25;;;15.14;nan
66164;BME280;52962;51.088;3.096;2024-01-15T04:07:17;100285.25;;;15.03;nan
66164;BME280;52962;51.088;3.096;2024-01-15T04:09:45;100295.66;;;15.31;nan
66164;BME280;52962;51.088;3.096;2024-01-15T04:12:14;100284.19;;;15.27;nan
66164;BME280;52962;51.088;3.096;2024-01-15T04:14:45;100277.16;;;15.20;nan
66164;BME280;52962;51.088;3.096;2024-01-15T04:17:13;100292.38;;;14.95;nan
66164;BME280;52962;51.088;3.096;2024-01-15T04:19:43;100284.72;;;15.70;nan
66164;BME280;52962;51.088;3.096;2024-01-15T04:22:13;100278.59;;;15.62;nan
66164;BME280;52962;51.088;3.096;2024-01-15T04:24:41;100275.66;;;14.84;nan
66164;BME280;52962;51.088;3.096;2024-01-15T04:27:10;100275.88;;;14.38;nan
66164;BME280;52962;51.088;3.096;2024-01-15T04:29:38;100278.25;;;14.92;nan
66164;BME280;52962;51.088;3.096;2024-01-15T04:32:07;100272.22;;;14.64;nan
66164;BME280;52962;51.088;3.096;2024-01-15T04:34:35;100269.50;;;14.76;nan
66164;BME280;52962;51.088;3.096;2024-01-15T04:37:03;100280.06;;;14.82;nan
66164;BME280;52962;51.088;3.096;2024-01-15T04:39:33;100278.41;;;14.63;nan
66164;BME280;52962;51.088;3.096;2024-01-15T04:42:01;100266.84;;;14.78;nan
66164;BME280;52962;51.088;3.096;2024-01-15T04:44:30;100265.72;;;15.14;nan
66164;BME280;52962;51.088;3.096;2024-01-15T04:46:58;100272.72;;;15.24;nan
66164;BME280;52962;51.088;3.096;2024-01-15T04:49:26;100270.09;;;15.21;nan
66164;BME280;52962;51.088;3.096;2024-01-15T04:51:56;100268.69;;;15.80;nan
66164;BME280;52962;51.088;3.096;2024-01-15T04:54:24;100273.91;;;15.89;nan
66164;BME280;52962;51.088;3.096;2024-01-15T04:56:54;100268.75;;;15.74;nan
66164;BME280;52962;51.088;3.096;2024-01-15T04:59:22;100262.13;;;15.21;nan
66164;BME280;52962;51.088;3.096;2024-01-15T05:01:50;100261.28;;;15.16;nan
66164;BME280;52962;51.088;3.096;2024-01-15T05:04:18;100266.53;;;15.23;nan
66164;BME280;52962;51.088;3.096;2024-01-15T05:06:46;100269.38;;;14.99;nan
66164;BME280;52962;51.088;3.096;2024-01-15T05:09:14;100269.50;;;14.76;nan
66164;BME280;52962;51.088;3.096;2024-01-15T05:11:42;100264.78;;;15.21;nan
66164;BME280;52962;51.088;3.096;2024-01-15T05:14:12;100259.41;;;15.30;nan
66164;BME280;52962;51.088;3.096;2024-01-15T05:16:44;100254.78;;;15.59;nan
66164;BME280;52962;51.088;3.096;2024-01-15T05:19:14;100260.31;;;15.29;nan
66164;BME280;52962;51.088;3.096;2024-01-15T05:21:42;100249.88;;;15.04;nan
66164;BME280;52962;51.088;3.096;2024-01-15T05:24:11;100259.50;;;15.18;nan
66164;BME280;52962;51.088;3.096;2024-01-15T05:26:43;100256.66;;;15.42;nan
66164;BME280;52962;51.088;3.096;2024-01-15T05:29:12;100249.47;;;15.53;nan
66164;BME280;52962;51.088;3.096;2024-01-15T05:31:41;100256.78;;;15.25;nan
66164;BME280;52962;51.088;3.096;2024-01-15T05:34:09;100248.56;;;15.56;nan
66164;BME280;52962;51.088;3.096;2024-01-15T05:36:38;100237.69;;;16.57;nan
66164;BME280;52962;51.088;3.096;2024-01-15T05:39:06;100237.97;;;16.35;nan
66164;BME280;52962;51.088;3.096;2024-01-15T05:41:34;100252.47;;;16.07;nan
66164;BME280;52962;51.088;3.096;2024-01-15T05:44:02;100255.19;;;16.01;nan
66164;BME280;52962;51.088;3.096;2024-01-15T05:46:32;100256.94;;;16.02;nan
66164;BME280;52962;51.088;3.096;2024-01-15T05:49:00;100257.50;;;15.47;nan
66164;BME280;52962;51.088;3.096;2024-01-15T05:51:28;100247.50;;;15.77;nan
66164;BME280;52962;51.088;3.096;2024-01-15T05:53:56;100250.88;;;15.91;nan
66164;BME280;52962;51.088;3.096;2024-01-15T05:56:24;100250.22;;;15.70;nan
66164;BME280;52962;51.088;3.096;2024-01-15T05:58:53;100254.69;;;15.65;nan
66164;BME280;52962;51.088;3.096;2024-01-15T06:01:22;100247.47;;;15.78;nan
66164;BME280;52962;51.088;3.096;2024-01-15T06:03:52;100256.44;;;15.65;nan
66164;BME280;52962;51.088;3.096;2024-01-15T06:06:20;100250.41;;;15.49;nan
66164;BME280;52962;51.088;3.096;2024-01-15T06:08:48;100254.41;;;15.93;nan
66164;BME280;52962;51.088;3.096;2024-01-15T06:11:16;100254.03;;;15.41;nan
66164;BME280;52962;51.088;3.096;2024-01-15T06:13:44;100263.19;;;15.98;nan
66164;BME280;52962;51.088;3.096;2024-01-15T06:16:14;100252.31;;;16.19;nan
66164;BME280;52962;51.088;3.096;2024-01-15T06:18:43;100254.97;;;15.32;nan
66164;BME280;52962;51.088;3.096;2024-01-15T06:21:14;100255.69;;;15.51;nan
66164;BME280;52962;51.088;3.096;2024-01-15T06:23:44;100249.94;;;14.98;nan
66164;BME280;52962;51.088;3.096;2024-01-15T06:26:12;100253.22;;;15.31;nan
66164;BME280;52962;51.088;3.096;2024-01-15T06:28:40;100251.56;;;15.15;nan
66164;BME280;52962;51.088;3.096;2024-01-15T06:31:08;100242.41;;;15.52;nan
66164;BME280;52962;51.088;3.096;2024-01-15T06:33:37;100244.28;;;15.41;nan
66164;BME280;52962;51.088;3.096;2024-01-15T06:36:07;100250.63;;;15.25;nan
66164;BME280;52962;51.088;3.096;2024-01-15T06:38:37;100248.03;;;15.16;nan
66164;BME280;52962;51.088;3.096;2024-01-15T06:41:05;100252.53;;;15.06;nan
66164;BME280;52962;51.088;3.096;2024-01-15T06:43:33;100246.75;;;15.62;nan
66164;BME280;52962;51.088;3.096;2024-01-15T06:46:02;100255.53;;;15.69;nan
66164;BME280;52962;51.088;3.096;2024-01-15T06:48:34;100244.03;;;15.67;nan
66164;BME280;52962;51.088;3.096;2024-01-15T06:51:03;100246.84;;;15.52;nan
66164;BME280;52962;51.088;3.096;2024-01-15T06:53:31;100242.47;;;15.46;nan
66164;BME280;52962;51.088;3.096;2024-01-15T06:56:01;100240.66;;;16.95;nan
66164;BME280;52962;51.088;3.096;2024-01-15T06:58:30;100237.38;;;15.22;nan
66164;BME280;52962;51.088;3.096;2024-01-15T07:00:59;100237.28;;;15.34;nan
66164;BME280;52962;51.088;3.096;2024-01-15T07:03:27;100240.78;;;15.36;nan
66164;BME280;52962;51.088;3.096;2024-01-15T07:05:56;100244.72;;;14.86;nan
66164;BME280;52962;51.088;3.096;2024-01-15T07:08:24;100234.75;;;15.17;nan
66164;BME280;52962;51.088;3.096;2024-01-15T07:10:52;100240.88;;;15.27;nan
66164;BME280;52962;51.088;3.096;2024-01-15T07:13:22;100244.22;;;15.50;nan
66164;BME280;52962;51.088;3.096;2024-01-15T07:15:51;100251.16;;;15.63;nan
66164;BME280;52962;51.088;3.096;2024-01-15T07:18:19;100256.81;;;15.24;nan
66164;BME280;52962;51.088;3.096;2024-01-15T07:20:48;100254.50;;;14.72;nan
66164;BME280;52962;51.088;3.096;2024-01-15T07:23:16;100258.50;;;15.32;nan
66164;BME280;52962;51.088;3.096;2024-01-15T07:25:44;100252.44;;;15.15;nan
66164;BME280;52962;51.088;3.096;2024-01-15T07:28:12;100250.56;;;15.31;nan
66164;BME280;52962;51.088;3.096;2024-01-15T07:30:48;100263.00;;;15.24;nan
66164;BME280;52962;51.088;3.096;2024-01-15T07:33:18;100265.59;;;15.30;nan
66164;BME280;52962;51.088;3.096;2024-01-15T07:35:46;100269.31;;;15.08;nan
66164;BME280;52962;51.088;3.096;2024-01-15T07:38:14;100273.59;;;15.26;nan
66164;BME280;52962;51.088;3.096;2024-01-15T07:40:43;100282.94;;;15.73;nan
66164;BME280;52962;51.088;3.096;2024-01-15T07:43:11;100289.09;;;15.76;nan
66164;BME280;52962;51.088;3.096;2024-01-15T07:45:39;100293.63;;;15.63;nan
66164;BME280;52962;51.088;3.096;2024-01-15T07:48:13;100294.88;;;15.15;nan
66164;BME280;52962;51.088;3.096;2024-01-15T07:50:41;100293.66;;;15.60;nan
66164;BME280;52962;51.088;3.096;2024-01-15T07:53:09;100297.66;;;14.97;nan
66164;BME280;52962;51.088;3.096;2024-01-15T07:55:37;100295.94;;;14.88;nan
66164;BME280;52962;51.088;3.096;2024-01-15T07:58:05;100295.94;;;14.88;nan
66164;BME280;52962;51.088;3.096;2024-01-15T08:00:42;100307.28;;;15.15;nan
66164;BME280;52962;51.088;3.096;2024-01-15T08:03:13;100298.47;;;15.07;nan
66164;BME280;52962;51.088;3.096;2024-01-15T08:05:42;100300.94;;;15.34;nan
66164;BME280;52962;51.088;3.096;2024-01-15T08:08:10;100300.00;;;15.40;nan
66164;BME280;52962;51.088;3.096;2024-01-15T08:10:38;100297.34;;;15.41;nan
66164;BME280;52962;51.088;3.096;2024-01-15T08:13:06;100311.34;;;15.61;nan
66164;BME280;52962;51.088;3.096;2024-01-15T08:15:36;100300.97;;;15.31;nan
66164;BME280;52962;51.088;3.096;2024-01-15T08:18:04;100296.28;;;15.62;nan
66164;BME280;52962;51.088;3.096;2024-01-15T08:20:34;100305.25;;;15.47;nan
66164;BME280;52962;51.088;3.096;2024-01-15T08:23:02;100306.59;;;15.97;nan
66164;BME280;52962;51.088;3.096;2024-01-15T08:25:31;100313.16;;;15.53;nan
66164;BME280;52962;51.088;3.096;2024-01-15T08:27:59;100312.94;;;15.79;nan
66164;BME280;52962;51.088;3.096;2024-01-15T08:30:27;100308.38;;;15.93;nan
66164;BME280;52962;51.088;3.096;2024-01-15T08:32:55;100307.69;;;15.73;nan
66164;BME280;52962;51.088;3.096;2024-01-15T08:35:35;100308.53;;;15.77;nan
66164;BME280;52962;51.088;3.096;2024-01-15T08:38:03;100309.13;;;16.09;nan
66164;BME280;52962;51.088;3.096;2024-01-15T08:40:32;100311.28;;;15.67;nan
66164;BME280;52962;51.088;3.096;2024-01-15T08:43:01;100310.72;;;15.29;nan
66164;BME280;52962;51.088;3.096;2024-01-15T08:45:29;100312.53;;;15.21;nan
66164;BME280;52962;51.088;3.096;2024-01-15T08:47:58;100313.34;;;15.32;nan
66164;BME280;52962;51.088;3.096;2024-01-15T08:50:27;100307.16;;;16.25;nan
66164;BME280;52962;51.088;3.096;2024-01-15T08:52:57;100312.06;;;15.79;nan
66164;BME280;52962;51.088;3.096;2024-01-15T08:55:25;100306.69;;;15.85;nan
66164;BME280;52962;51.088;3.096;2024-01-15T08:57:53;100319.91;;;15.91;nan
66164;BME280;52962;51.088;3.096;2024-01-15T09:00:21;100320.78;;;15.94;nan
66164;BME280;52962;51.088;3.096;2024-01-15T09:02:49;100317.28;;;15.89;nan
66164;BME280;52962;51.088;3.096;2024-01-15T09:05:18;100332.94;;;15.10;nan
66164;BME280;52962;51.088;3.096;2024-01-15T09:07:46;100335.47;;;15.29;nan
66164;BME280;52962;51.088;3.096;2024-01-15T09:10:16;100335.84;;;15.91;nan
66164;BME280;52962;51.088;3.096;2024-01-15T09:12:46;100345.56;;;15.95;nan
66164;BME280;52962;51.088;3.096;2024-01-15T09:15:16;100337.03;;;15.59;nan
66164;BME280;52962;51.088;3.096;2024-01-15T09:17:44;100344.75;;;15.84;nan
66164;BME280;52962;51.088;3.096;2024-01-15T09:20:13;100344.66;;;15.96;nan
66164;BME280;52962;51.088;3.096;2024-01-15T09:22:41;100334.31;;;15.64;nan
66164;BME280;52962;51.088;3.096;2024-01-15T09:25:10;100346.69;;;15.66;nan
66164;BME280;52962;51.088;3.096;2024-01-15T09:27:43;100333.66;;;15.36;nan
66164;BME280;52962;51.088;3.096;2024-01-15T09:30:13;100327.00;;;15.90;nan
66164;BME280;52962;51.088;3.096;2024-01-15T09:32:41;100339.47;;;15.84;nan
66164;BME280;52962;51.088;3.096;2024-01-15T09:35:10;100342.88;;;15.95;nan
66164;BME280;52962;51.088;3.096;2024-01-15T09:37:39;100345.00;;;15.59;nan
66164;BME280;52962;51.088;3.096;2024-01-15T09:40:14;100343.53;;;16.20;nan
66164;BME280;52962;51.088;3.096;2024-01-15T09:42:46;100352.50;;;16.10;nan
66164;BME280;52962;51.088;3.096;2024-01-15T09:45:14;100348.19;;;15.96;nan
66164;BME280;52962;51.088;3.096;2024-01-15T09:47:44;100354.75;;;16.48;nan
66164;BME280;52962;51.088;3.096;2024-01-15T09:50:13;100353.91;;;16.44;nan
66164;BME280;52962;51.088;3.096;2024-01-15T09:52:43;100357.28;;;15.69;nan
66164;BME280;52962;51.088;3.096;2024-01-15T09:55:13;100349.25;;;16.63;nan
66164;BME280;52962;51.088;3.096;2024-01-15T09:57:45;100355.75;;;16.38;nan
66164;BME280;52962;51.088;3.096;2024-01-15T10:00:17;100368.59;;;15.91;nan
66164;BME280;52962;51.088;3.096;2024-01-15T10:02:46;100379.50;;;16.53;nan
66164;BME280;52962;51.088;3.096;2024-01-15T10:05:16;100374.59;;;16.91;nan
66164;BME280;52962;51.088;3.096;2024-01-15T10:07:46;100371.31;;;16.70;nan
66164;BME280;52962;51.088;3.096;2024-01-15T10:10:16;100384.47;;;16.82;nan
66164;BME280;52962;51.088;3.096;2024-01-15T10:12:49;100390.19;;;16.47;nan
66164;BME280;52962;51.088;3.096;2024-01-15T10:15:22;100385.81;;;16.41;nan
66164;BME280;52962;51.088;3.096;2024-01-15T10:17:50;100396.13;;;16.70;nan
66164;BME280;52962;51.088;3.096;2024-01-15T10:20:18;100404.00;;;16.79;nan
66164;BME280;52962;51.088;3.096;2024-01-15T10:22:50;100396.06;;;16.75;nan
66164;BME280;52962;51.088;3.096;2024-01-15T10:25:18;100396.34;;;16.52;nan
66164;BME280;52962;51.088;3.096;2024-01-15T10:28:01;100383.13;;;17.16;nan
66164;BME280;52962;51.088;3.096;2024-01-15T10:30:30;100383.03;;;17.24;nan
66164;BME280;52962;51.088;3.096;2024-01-15T10:33:02;100390.41;;;17.04;nan
66164;BME280;52962;51.088;3.096;2024-01-15T10:35:33;100400.56;;;16.71;nan
66164;BME280;52962;51.088;3.096;2024-01-15T10:38:02;100384.72;;;16.60;nan
66164;BME280;52962;51.088;3.096;2024-01-15T10:40:31;100384.75;;;17.26;nan
66164;BME280;52962;51.088;3.096;2024-01-15T10:43:01;100388.19;;;17.35;nan
66164;BME280;52962;51.088;3.096;2024-01-15T10:45:29;100395.09;;;16.83;nan
66164;BME280;52962;51.088;3.096;2024-01-15T10:47:58;100386.94;;;17.58;nan
66164;BME280;52962;51.088;3.096;2024-01-15T10:50:27;100391.69;;;17.38;nan
66164;BME280;52962;51.088;3.096;2024-01-15T10:52:57;100381.94;;;17.39;nan
66164;BME280;52962;51.088;3.096;2024-01-15T10:55:26;100392.03;;;17.74;nan
66164;BME280;52962;51.088;3.096;2024-01-15T10:57:55;100394.84;;;17.66;nan
66164;BME280;52962;51.088;3.096;2024-01-15T11:00:27;100402.44;;;17.89;nan
66164;BME280;52962;51.088;3.096;2024-01-15T11:02:56;100405.44;;;17.06;nan
66164;BME280;52962;51.088;3.096;2024-01-15T11:05:25;100398.94;;;17.27;nan
66164;BME280;52962;51.088;3.096;2024-01-15T11:07:55;100406.00;;;16.59;nan
66164;BME280;52962;51.088;3.096;2024-01-15T11:10:40;100399.44;;;16.06;nan
66164;BME280;52962;51.088;3.096;2024-01-15T11:13:14;100407.97;;;16.40;nan
66164;BME280;52962;51.088;3.096;2024-01-15T11:16:01;100424.16;;;16.14;nan
66164;BME280;52962;51.088;3.096;2024-01-15T11:18:31;100424.28;;;16.02;nan
66164;BME280;52962;51.088;3.096;2024-01-15T11:21:25;100417.97;;;16.96;nan
66164;BME280;52962;51.088;3.096;2024-01-15T11:23:55;100422.97;;;17.21;nan
66164;BME280;52962;51.088;3.096;2024-01-15T11:26:33;100428.31;;;17.21;nan
66164;BME280;52962;51.088;3.096;2024-01-15T11:29:03;100435.13;;;16.71;nan
66164;BME280;52962;51.088;3.096;2024-01-15T11:31:58;100437.94;;;16.56;nan
66164;BME280;52962;51.088;3.096;2024-01-15T11:34:58;100439.81;;;16.45;nan
66164;BME280;52962;51.088;3.096;2024-01-15T11:37:58;100446.34;;;16.97;nan
66164;BME280;52962;51.088;3.096;2024-01-15T11:40:38;100441.94;;;16.95;nan
66164;BME280;52962;51.088;3.096;2024-01-15T11:43:09;100447.09;;;16.24;nan
66164;BME280;52962;51.088;3.096;2024-01-15T11:45:40;100444.66;;;16.00;nan
66164;BME280;52962;51.088;3.096;2024-01-15T11:48:12;100443.91;;;15.83;nan
66164;BME280;52962;51.088;3.096;2024-01-15T11:50:41;100414.50;;;16.04;nan
66164;BME280;52962;51.088;3.096;2024-01-15T11:53:16;100444.63;;;16.90;nan
66164;BME280;52962;51.088;3.096;2024-01-15T11:55:46;100446.31;;;16.99;nan
66164;BME280;52962;51.088;3.096;2024-01-15T11:58:15;100449.84;;;16.99;nan
66164;BME280;52962;51.088;3.096;2024-01-15T12:00:44;100451.19;;;16.59;nan
66164;BME280;52962;51.088;3.096;2024-01-15T12:03:16;100442.25;;;16.66;nan
66164;BME280;52962;51.088;3.096;2024-01-15T12:05:44;100448.22;;;16.88;nan
66164;BME280;52962;51.088;3.096;2024-01-15T12:08:13;100450.25;;;16.64;nan
66164;BME280;52962;51.088;3.096;2024-01-15T12:10:41;100448.66;;;17.25;nan
66164;BME280;52962;51.088;3.096;2024-01-15T12:13:12;100455.69;;;16.54;nan
66164;BME280;52962;51.088;3.096;2024-01-15T12:15:41;100448.59;;;16.53;nan
66164;BME280;52962;51.088;3.096;2024-01-15T12:18:12;100456.81;;;16.28;nan
66164;BME280;52962;51.088;3.096;2024-01-15T12:20:45;100445.50;;;16.94;nan
66164;BME280;52962;51.088;3.096;2024-01-15T12:23:17;100451.28;;;16.51;nan
66164;BME280;52962;51.088;3.096;2024-01-15T12:25:46;100451.69;;;16.93;nan
66164;BME280;52962;51.088;3.096;2024-01-15T12:28:14;100452.66;;;16.87;nan
66164;BME280;52962;51.088;3.096;2024-01-15T12:30:47;100450.47;;;16.42;nan
66164;BME280;52962;51.088;3.096;2024-01-15T12:33:18;100457.03;;;16.02;nan
66164;BME280;52962;51.088;3.096;2024-01-15T12:35:52;100452.06;;;16.61;nan
66164;BME280;52962;51.088;3.096;2024-01-15T12:38:21;100453.94;;;16.50;nan
66164;BME280;52962;51.088;3.096;2024-01-15T12:40:50;100456.22;;;16.86;nan
66164;BME280;52962;51.088;3.096;2024-01-15T12:43:19;100457.66;;;17.15;nan
66164;BME280;52962;51.088;3.096;2024-01-15T12:45:47;100448.34;;;17.48;nan
66164;BME280;52962;51.088;3.096;2024-01-15T12:48:15;100448.59;;;17.29;nan
66164;BME280;52962;51.088;3.096;2024-01-15T12:50:45;100457.31;;;16.67;nan
66164;BME280;52962;51.088;3.096;2024-01-15T12:53:16;100465.78;;;17.03;nan
66164;BME280;52962;51.088;3.096;2024-01-15T12:55:44;100458.06;;;16.80;nan
66164;BME280;52962;51.088;3.096;2024-01-15T12:58:13;100465.81;;;16.99;nan
66164;BME280;52962;51.088;3.096;2024-01-15T13:00:43;100464.13;;;16.92;nan
66164;BME280;52962;51.088;3.096;2024-01-15T13:03:11;100471.13;;;16.99;nan
66164;BME280;52962;51.088;3.096;2024-01-15T13:05:41;100466.91;;;17.52;nan
66164;BME280;52962;51.088;3.096;2024-01-15T13:08:09;100462.94;;;17.18;nan
66164;BME280;52962;51.088;3.096;2024-01-15T13:10:39;100459.22;;;16.53;nan
66164;BME280;52962;51.088;3.096;2024-01-15T13:13:10;100472.38;;;16.68;nan
66164;BME280;52962;51.088;3.096;2024-01-15T13:15:39;100468.13;;;17.28;nan
66164;BME280;52962;51.088;3.096;2024-01-15T13:18:08;100479.31;;;16.83;nan
66164;BME280;52962;51.088;3.096;2024-01-15T13:20:37;100468.94;;;18.49;nan
66164;BME280;52962;51.088;3.096;2024-01-15T13:23:06;100480.25;;;16.77;nan